Terminal Aerodrome Forecast
Issued by NWS Cleveland, OH

Home | Current Version | Previous Version | Graphics & Text | Print | Product List | Glossary Off
Versions: 1 2 3 4 5 6 7 8 9 10 11 12 13 14 15 16 17 18 19 20

000
FTUS41 KCLE 260520
TAFCAK
TAF
KCAK 260520Z 2606/2706 32005KT P6SM OVC012
      TEMPO 2606/2609 OVC008
     FM260900 30004KT 6SM BR BKN012
      TEMPO 2609/2613 5SM BR OVC008
     FM261300 29004KT P6SM BKN025
     FM261500 31005KT P6SM SCT050
     FM261700 29005KT P6SM SCT050
     FM270000 35004KT P6SM BKN250=

USA.gov is the U.S. government's official web portal to all federal, state and local government web resources and services.